createdAt,value
2019-05-21T00:01:28.698Z,98.60
2019-05-21T00:03:59.167Z,98.70
2019-05-21T00:06:28.215Z,98.40
2019-05-21T00:09:11.625Z,98.70
2019-05-21T00:11:40.482Z,98.60
2019-05-21T00:14:09.189Z,98.30
2019-05-21T00:16:37.975Z,98.10
2019-05-21T00:19:11.046Z,97.60
2019-05-21T00:21:41.390Z,97.80
2019-05-21T00:24:10.165Z,97.70
2019-05-21T00:26:38.986Z,98.00
2019-05-21T00:29:44.099Z,97.40
2019-05-21T00:32:49.335Z,97.60
2019-05-21T00:35:54.599Z,98.30
2019-05-21T00:39:00.055Z,98.50
2019-05-21T00:42:09.006Z,98.60
2019-05-21T00:44:52.571Z,98.40
2019-05-21T00:47:21.283Z,98.20
2019-05-21T00:49:50.137Z,98.50
2019-05-21T00:52:18.823Z,98.50
2019-05-21T00:55:06.767Z,98.60
2019-05-21T00:57:35.561Z,98.20
2019-05-21T01:00:14.876Z,98.50
2019-05-21T01:02:43.733Z,98.70
2019-05-21T01:05:15.646Z,98.60
2019-05-21T01:07:50.360Z,98.70
2019-05-21T01:10:29.318Z,98.40
2019-05-21T01:13:01.406Z,98.30
2019-05-21T01:15:40.849Z,98.60
2019-05-21T01:18:05.189Z,98.60
2019-05-21T01:20:33.930Z,98.90
2019-05-21T01:23:04.219Z,99.10
2019-05-21T01:25:33.081Z,98.80
2019-05-21T01:28:01.982Z,98.80
2019-05-21T01:30:30.771Z,98.60
2019-05-21T01:32:59.417Z,98.60
2019-05-21T01:35:28.248Z,98.70
2019-05-21T01:37:57.051Z,98.80
2019-05-21T01:40:25.835Z,98.60
2019-05-21T01:42:54.577Z,98.70
2019-05-21T01:45:23.245Z,98.80
2019-05-21T01:47:51.987Z,98.90
2019-05-21T01:50:20.752Z,99.10
2019-05-21T01:52:49.473Z,98.80
2019-05-21T01:55:18.323Z,98.60
2019-05-21T01:57:46.990Z,98.90
2019-05-21T02:00:15.891Z,99.30
2019-05-21T02:02:44.776Z,98.70
2019-05-21T02:05:13.905Z,98.60
2019-05-21T02:07:42.715Z,99.00
2019-05-21T02:10:11.667Z,99.00
2019-05-21T02:12:40.494Z,98.70
2019-05-21T02:15:17.113Z,98.50
2019-05-21T02:17:45.856Z,98.40
2019-05-21T02:20:14.967Z,98.40
2019-05-21T02:22:43.739Z,98.70
2019-05-21T02:25:12.676Z,98.70
2019-05-21T02:27:41.577Z,98.70
2019-05-21T02:30:11.114Z,98.90
2019-05-21T02:32:39.861Z,98.70
2019-05-21T02:35:09.128Z,98.70
2019-05-21T02:37:37.876Z,98.70
2019-05-21T02:40:07.338Z,98.70
2019-05-21T02:42:36.266Z,98.70
2019-05-21T02:45:07.358Z,98.60
2019-05-21T02:50:40.345Z,98.70
2019-05-21T02:53:09.088Z,98.80
2019-05-21T02:55:38.304Z,98.80
2019-05-21T02:58:07.115Z,98.90
2019-05-21T03:00:38.880Z,98.90
2019-05-21T03:03:11.302Z,99.00
2019-05-21T03:05:42.738Z,98.90
2019-05-21T03:08:11.478Z,98.90
2019-05-21T03:10:40.413Z,98.90
2019-05-21T03:13:09.108Z,98.90
2019-05-21T03:15:37.921Z,98.90
2019-05-21T03:18:06.791Z,99.10
2019-05-21T03:20:35.602Z,99.10
2019-05-21T03:23:04.369Z,99.00
2019-05-21T03:25:33.623Z,99.10
2019-05-21T03:28:02.615Z,99.10
2019-05-21T03:30:31.448Z,99.20
2019-05-21T03:33:00.286Z,99.10
2019-05-21T03:35:29.015Z,99.10
2019-05-21T03:37:59.148Z,99.20
2019-05-21T03:40:27.833Z,99.20
2019-05-21T03:42:56.732Z,99.30
2019-05-21T03:45:25.663Z,99.20
2019-05-21T03:47:54.559Z,99.50
2019-05-21T03:50:23.316Z,99.20
2019-05-21T03:52:52.077Z,99.20
2019-05-21T03:55:20.867Z,99.20
2019-05-21T03:57:49.610Z,99.20
2019-05-21T04:00:18.837Z,99.10
2019-05-21T04:02:47.578Z,99.20
2019-05-21T04:05:26.572Z,99.20
2019-05-21T04:07:55.303Z,99.10
2019-05-21T04:10:24.369Z,99.20
2019-05-21T04:13:08.883Z,99.30
2019-05-21T04:15:44.115Z,99.20
2019-05-21T04:18:30.648Z,99.20
2019-05-21T04:21:00.952Z,99.40
2019-05-21T04:23:29.706Z,99.30
2019-05-21T04:25:58.787Z,99.10
2019-05-21T04:28:29.751Z,99.60
2019-05-21T04:30:58.467Z,99.40
2019-05-21T04:33:27.148Z,99.20
2019-05-21T04:35:55.890Z,99.30
2019-05-21T04:38:24.594Z,99.50
2019-05-21T04:40:53.375Z,99.40
2019-05-21T04:43:22.042Z,99.50
2019-05-21T04:45:51.756Z,99.20
2019-05-21T04:48:20.427Z,99.20
2019-05-21T04:50:49.244Z,98.50
2019-05-21T04:53:17.933Z,98.30
2019-05-21T04:55:46.696Z,98.00
2019-05-21T04:58:15.507Z,97.90
2019-05-21T05:00:44.278Z,97.70
2019-05-21T05:03:13.315Z,97.50
2019-05-21T05:05:42.168Z,97.50
2019-05-21T05:08:10.821Z,97.40
2019-05-21T05:10:39.582Z,97.20
2019-05-21T05:13:10.877Z,97.50
2019-05-21T05:15:39.711Z,97.20
2019-05-21T05:18:08.620Z,97.60
2019-05-21T05:20:39.846Z,97.60
2019-05-21T05:23:07.931Z,96.80
2019-05-21T05:25:36.665Z,96.60
2019-05-21T05:28:05.431Z,96.70
2019-05-21T05:30:34.182Z,96.80
2019-05-21T05:33:02.946Z,96.90
2019-05-21T05:35:31.608Z,97.00
2019-05-21T05:38:01.609Z,97.30
2019-05-21T05:40:30.435Z,97.40
2019-05-21T05:42:59.286Z,96.80
2019-05-21T05:45:28.106Z,97.20
2019-05-21T05:48:00.092Z,97.10
2019-05-21T05:50:33.436Z,97.10
2019-05-21T05:53:05.303Z,96.70
2019-05-21T05:55:34.106Z,96.70
2019-05-21T05:58:02.824Z,96.70
2019-05-21T06:00:31.774Z,96.70
2019-05-21T06:03:00.581Z,96.50
2019-05-21T06:05:29.631Z,96.20
2019-05-21T06:08:00.116Z,96.30
2019-05-21T06:10:31.834Z,96.50
2019-05-21T06:13:00.663Z,96.50
2019-05-21T06:15:29.603Z,96.70
2019-05-21T06:18:00.001Z,96.50
2019-05-21T06:20:28.812Z,96.60
2019-05-21T06:22:57.635Z,96.60
2019-05-21T06:25:26.697Z,96.50
2019-05-21T06:28:00.147Z,96.40
2019-05-21T06:30:27.601Z,96.00
2019-05-21T06:32:56.428Z,95.90
2019-05-21T06:35:34.299Z,95.90
2019-05-21T06:38:16.689Z,96.10
2019-05-21T06:40:38.193Z,96.20
2019-05-21T06:43:05.160Z,96.30
2019-05-21T06:45:35.689Z,96.00
2019-05-21T06:48:04.558Z,95.60
2019-05-21T06:50:37.100Z,95.50
2019-05-21T06:53:04.048Z,95.00
2019-05-21T06:55:40.104Z,94.80
2019-05-21T06:58:08.845Z,94.80
2019-05-21T07:00:37.862Z,94.90
2019-05-21T07:03:09.210Z,94.80
2019-05-21T07:05:38.000Z,94.60
2019-05-21T07:10:45.309Z,94.50
2019-05-21T07:12:24.850Z,94.20
2019-05-21T07:13:15.697Z,94.30
2019-05-21T07:15:49.022Z,94.40
2019-05-21T07:18:17.785Z,94.50
2019-05-21T07:20:48.235Z,94.40
2019-05-21T07:23:24.859Z,94.00
2019-05-21T07:26:01.074Z,94.30
2019-05-21T07:28:36.138Z,93.70
2019-05-21T07:31:05.542Z,92.90
2019-05-21T07:33:34.392Z,92.80
2019-05-21T07:36:09.508Z,92.50
2019-05-21T07:38:52.631Z,92.20
2019-05-21T07:41:14.375Z,91.60
2019-05-21T07:43:46.159Z,92.10
2019-05-21T07:46:15.251Z,92.00
2019-05-21T07:48:44.122Z,92.50
2019-05-21T07:51:12.877Z,92.70
2019-05-21T07:53:41.618Z,92.40
2019-05-21T07:56:10.456Z,92.50
2019-05-21T07:58:39.269Z,92.80
2019-05-21T08:01:08.253Z,92.30
2019-05-21T08:03:37.111Z,92.80
2019-05-21T08:06:06.156Z,93.00
2019-05-21T08:08:34.968Z,92.80
2019-05-21T08:11:05.452Z,93.10
2019-05-21T08:13:34.423Z,92.30
2019-05-21T08:16:03.267Z,92.70
2019-05-21T08:18:32.155Z,92.60
2019-05-21T08:21:04.277Z,92.50
2019-05-21T08:23:32.928Z,91.70
2019-05-21T08:26:03.312Z,91.30
2019-05-21T08:28:32.340Z,91.00
2019-05-21T08:31:02.361Z,90.80
2019-05-21T08:33:31.285Z,91.20
2019-05-21T08:36:02.982Z,91.30
2019-05-21T08:38:32.003Z,91.40
2019-05-21T08:41:02.791Z,90.80
2019-05-21T08:43:31.525Z,90.20
2019-05-21T08:46:01.644Z,90.90
2019-05-21T08:48:30.455Z,87.90
2019-05-21T08:50:59.279Z,88.30
2019-05-21T08:53:28.038Z,87.60
2019-05-21T08:55:56.845Z,86.60
2019-05-21T08:58:25.679Z,84.70
2019-05-21T09:00:54.585Z,83.70
2019-05-21T09:03:23.551Z,84.20
2019-05-21T09:05:52.306Z,83.00
2019-05-21T09:08:21.126Z,83.10
2019-05-21T09:10:51.859Z,81.80
2019-05-21T09:13:22.291Z,82.20
2019-05-21T09:15:51.060Z,81.10
2019-05-21T09:18:19.788Z,80.40
2019-05-21T09:20:48.663Z,81.00
2019-05-21T09:23:17.559Z,77.90
2019-05-21T09:25:49.403Z,79.40
2019-05-21T09:28:16.721Z,81.20
2019-05-21T09:30:45.570Z,80.00
2019-05-21T09:33:14.651Z,79.80
2019-05-21T09:35:43.456Z,78.60
2019-05-21T09:38:14.796Z,78.40
2019-05-21T09:40:43.562Z,77.80
2019-05-21T09:43:12.328Z,78.90
2019-05-21T09:45:41.093Z,80.30
2019-05-21T09:48:10.107Z,80.80
2019-05-21T09:50:38.841Z,79.00
2019-05-21T09:53:07.610Z,79.70
2019-05-21T09:55:36.339Z,80.20
2019-05-21T09:58:12.635Z,81.60
2019-05-21T10:00:59.267Z,81.00
2019-05-21T10:03:29.790Z,82.50
2019-05-21T10:05:58.524Z,81.10
2019-05-21T10:08:27.264Z,80.10
2019-05-21T10:10:56.052Z,80.10
2019-05-21T10:13:24.914Z,79.00
2019-05-21T10:15:53.685Z,77.90
2019-05-21T10:18:22.335Z,75.10
2019-05-21T10:20:51.135Z,75.90
2019-05-21T10:23:19.872Z,74.40
2019-05-21T10:25:48.670Z,68.70
2019-05-21T10:28:17.422Z,64.40
2019-05-21T10:30:49.185Z,59.40
2019-05-21T10:33:18.143Z,56.80
2019-05-21T10:35:47.229Z,59.60
2019-05-21T10:38:15.976Z,58.60
2019-05-21T10:40:44.878Z,55.40
2019-05-21T10:43:13.634Z,56.10
2019-05-21T10:45:42.438Z,58.50
2019-05-21T10:48:11.114Z,58.50
2019-05-21T10:50:40.032Z,61.30
2019-05-21T10:53:08.839Z,59.10
2019-05-21T10:55:37.590Z,57.70
2019-05-21T10:58:06.573Z,56.90
2019-05-21T11:00:35.432Z,54.00
2019-05-21T11:03:17.939Z,51.70
2019-05-21T11:05:48.441Z,53.00
2019-05-21T11:08:25.241Z,53.60
2019-05-21T11:10:47.624Z,55.50
2019-05-21T11:13:16.283Z,57.90
2019-05-21T11:15:45.102Z,56.10
2019-05-21T11:18:13.882Z,56.20
2019-05-21T11:20:43.612Z,56.80
2019-05-21T11:23:13.856Z,55.50
2019-05-21T11:25:42.641Z,53.90
2019-05-21T11:28:11.366Z,53.00
2019-05-21T11:30:40.093Z,53.00
2019-05-21T11:33:08.835Z,51.70
2019-05-21T11:35:37.551Z,50.90
2019-05-21T11:38:06.366Z,50.50
2019-05-21T11:40:35.162Z,51.90
2019-05-21T11:43:03.914Z,52.50
2019-05-21T11:45:33.097Z,53.20
2019-05-21T11:48:02.138Z,52.80
2019-05-21T11:50:30.977Z,54.10
2019-05-21T11:52:59.751Z,54.40
2019-05-21T11:55:29.631Z,56.50
2019-05-21T11:57:58.423Z,56.60
2019-05-21T12:00:28.920Z,56.70
2019-05-21T12:02:57.722Z,57.40
2019-05-21T12:05:26.522Z,56.60
2019-05-21T12:07:55.237Z,54.40
2019-05-21T12:10:23.916Z,54.70
2019-05-21T12:12:52.647Z,54.30
2019-05-21T12:15:21.608Z,57.20
2019-05-21T12:17:50.280Z,57.10
2019-05-21T12:20:35.269Z,59.50
2019-05-21T12:22:49.766Z,60.30
2019-05-21T12:25:18.484Z,58.90
2019-05-21T12:27:47.153Z,57.10
2019-05-21T12:30:16.169Z,55.50
2019-05-21T12:32:44.907Z,54.80
2019-05-21T12:35:14.587Z,54.30
2019-05-21T12:37:43.384Z,52.60
2019-05-21T12:40:13.428Z,52.60
2019-05-21T12:42:42.167Z,50.80
2019-05-21T12:45:11.067Z,49.90
2019-05-21T12:47:39.718Z,50.60
2019-05-21T12:50:10.455Z,49.70
2019-05-21T12:52:39.241Z,48.60
2019-05-21T12:55:09.138Z,50.10
2019-05-21T12:57:37.957Z,50.40
2019-05-21T13:00:10.657Z,51.00
2019-05-21T13:02:39.302Z,48.90
2019-05-21T13:05:11.328Z,48.60
2019-05-21T13:07:38.952Z,50.20
2019-05-21T13:10:08.766Z,51.30
2019-05-21T13:12:37.562Z,52.40
2019-05-21T13:15:07.478Z,54.30
2019-05-21T13:17:36.293Z,53.40
2019-05-21T13:20:08.930Z,54.40
2019-05-21T13:22:37.775Z,53.90
2019-05-21T13:25:07.769Z,52.50
2019-05-21T13:27:36.604Z,53.40
2019-05-21T13:30:08.855Z,52.10
2019-05-21T13:32:37.747Z,51.90
2019-05-21T13:35:07.779Z,51.60
2019-05-21T13:37:36.919Z,53.10
2019-05-21T13:40:08.635Z,52.00
2019-05-21T13:42:37.458Z,52.10
2019-05-21T13:45:08.159Z,52.70
2019-05-21T13:47:36.820Z,52.40
2019-05-21T13:50:10.913Z,51.50
2019-05-21T13:52:39.619Z,50.40
2019-05-21T13:55:09.889Z,52.40
2019-05-21T13:57:38.662Z,52.20
2019-05-21T14:00:12.047Z,52.00
2019-05-21T14:02:39.949Z,51.30
2019-05-21T14:05:09.388Z,51.40
2019-05-21T14:07:38.150Z,51.70
2019-05-21T14:10:19.431Z,52.50
2019-05-21T14:12:38.101Z,53.50
2019-05-21T14:15:07.107Z,55.30
2019-05-21T14:17:35.749Z,56.40
2019-05-21T14:20:07.723Z,56.50
2019-05-21T14:22:36.741Z,57.60
2019-05-21T14:25:08.719Z,58.40
2019-05-21T14:27:44.423Z,58.20
2019-05-21T14:30:09.561Z,55.60
2019-05-21T14:32:38.302Z,55.40
2019-05-21T14:35:07.284Z,58.40
2019-05-21T14:37:35.998Z,60.00
2019-05-21T14:40:07.780Z,62.10
2019-05-21T14:42:36.575Z,62.80
2019-05-21T14:45:07.471Z,63.30
2019-05-21T14:47:36.159Z,63.90
2019-05-21T14:50:07.245Z,64.10
2019-05-21T14:52:36.019Z,65.60
2019-05-21T14:55:10.372Z,66.20
2019-05-21T14:57:39.193Z,67.00
2019-05-21T15:00:23.179Z,67.50
2019-05-21T15:02:51.900Z,66.60
2019-05-21T15:05:21.386Z,65.50
2019-05-21T15:07:50.251Z,62.50
2019-05-21T15:10:19.137Z,60.40
2019-05-21T15:12:47.810Z,58.70
2019-05-21T15:15:16.612Z,59.10
2019-05-21T15:17:45.366Z,60.10
2019-05-21T15:20:16.124Z,59.40
2019-05-21T15:22:44.951Z,57.90
2019-05-21T15:25:13.907Z,57.40
2019-05-21T15:27:42.601Z,57.90
2019-05-21T15:30:11.489Z,59.50
2019-05-21T15:32:40.172Z,58.60
2019-05-21T15:35:08.931Z,58.10
2019-05-21T15:37:37.608Z,59.00
2019-05-21T15:40:07.085Z,60.10
2019-05-21T15:42:35.827Z,61.20
2019-05-21T15:45:07.398Z,61.70
2019-05-21T15:47:36.143Z,62.60
2019-05-21T15:50:05.346Z,64.60
2019-05-21T15:52:34.014Z,66.40
2019-05-21T15:55:06.825Z,68.10
2019-05-21T15:57:33.300Z,68.60
2019-05-21T16:00:02.265Z,68.70
2019-05-21T16:02:31.037Z,68.50
2019-05-21T16:04:59.758Z,67.90
2019-05-21T16:07:28.491Z,68.40
2019-05-21T16:09:57.246Z,67.90
2019-05-21T16:12:26.033Z,67.60
2019-05-21T16:14:54.718Z,67.80
2019-05-21T16:17:23.463Z,66.20
2019-05-21T16:19:52.333Z,64.40
2019-05-21T16:22:21.044Z,63.50
2019-05-21T16:24:49.845Z,63.10
2019-05-21T16:27:18.593Z,63.30
2019-05-21T16:29:47.254Z,64.70
2019-05-21T16:32:16.302Z,67.70
2019-05-21T16:34:45.291Z,68.80
2019-05-21T16:37:14.329Z,70.10
2019-05-21T16:39:42.976Z,71.50
2019-05-21T16:42:13.274Z,73.30
2019-05-21T16:44:42.067Z,74.40
2019-05-21T16:47:10.894Z,75.20
2019-05-21T16:49:39.765Z,75.60
2019-05-21T16:52:08.627Z,76.20
2019-05-21T16:54:44.081Z,76.20
2019-05-21T16:57:15.632Z,75.60
2019-05-21T16:59:47.643Z,75.10
2019-05-21T17:02:16.315Z,75.80
2019-05-21T17:04:44.982Z,76.90
2019-05-21T17:07:15.695Z,76.30
2019-05-21T17:09:44.799Z,76.50
2019-05-21T17:12:13.976Z,77.00
2019-05-21T17:14:45.752Z,77.80
2019-05-21T17:17:14.708Z,78.50
2019-05-21T17:19:43.369Z,79.10
2019-05-21T17:22:12.263Z,78.60
2019-05-21T17:24:42.633Z,79.10
2019-05-21T17:27:11.649Z,80.10
2019-05-21T17:29:40.532Z,80.10
2019-05-21T17:32:09.438Z,79.40
2019-05-21T17:34:39.444Z,79.90
2019-05-21T17:37:11.401Z,80.60
2019-05-21T17:39:44.885Z,81.30
2019-05-21T17:42:17.832Z,81.70
2019-05-21T17:44:50.879Z,82.30
2019-05-21T17:47:19.763Z,82.40
2019-05-21T17:49:48.770Z,82.90
2019-05-21T17:52:17.651Z,83.20
2019-05-21T17:54:56.625Z,82.90
2019-05-21T17:58:58.355Z,83.20
2019-05-21T18:00:16.901Z,83.40
2019-05-21T18:02:46.400Z,83.60
2019-05-21T18:05:17.017Z,83.50
2019-05-21T18:07:46.031Z,83.60
2019-05-21T18:10:16.413Z,83.70
2019-05-21T18:12:50.215Z,83.50
2019-05-21T18:15:23.045Z,83.90
2019-05-21T18:17:52.139Z,84.20
2019-05-21T18:20:21.201Z,84.30
2019-05-21T18:22:54.396Z,84.50
2019-05-21T18:25:24.362Z,84.20
2019-05-21T18:27:53.347Z,84.70
2019-05-21T18:30:24.722Z,84.70
2019-05-21T18:32:53.541Z,85.40
2019-05-21T18:35:22.431Z,85.00
2019-05-21T18:37:53.380Z,85.60
2019-05-21T18:40:22.291Z,85.10
2019-05-21T18:42:50.959Z,85.10
2019-05-21T18:45:19.742Z,85.30
2019-05-21T18:47:48.764Z,86.70
2019-05-21T18:50:34.806Z,88.00
2019-05-21T18:52:55.467Z,89.40
2019-05-21T18:55:25.846Z,88.50
2019-05-21T18:57:57.530Z,89.40
2019-05-21T19:00:26.660Z,90.50
2019-05-21T19:02:58.193Z,90.60
2019-05-21T19:05:26.967Z,91.10
2019-05-21T19:07:55.780Z,90.70
2019-05-21T19:10:28.918Z,90.60
2019-05-21T19:13:00.872Z,90.60
2019-05-21T19:15:28.575Z,90.90
2019-05-21T19:17:57.427Z,91.60
2019-05-21T19:20:26.274Z,91.60
2019-05-21T19:23:01.933Z,91.80
2019-05-21T19:25:28.209Z,91.70
2019-05-21T19:27:56.977Z,92.10
2019-05-21T19:30:25.682Z,92.80
2019-05-21T19:32:54.490Z,92.40
2019-05-21T19:35:23.288Z,92.30
2019-05-21T19:37:54.109Z,91.90
2019-05-21T19:40:22.870Z,92.50
2019-05-21T19:42:55.341Z,92.90
2019-05-21T19:45:22.108Z,92.90
2019-05-21T19:47:51.216Z,93.00
2019-05-21T19:50:20.306Z,93.40
2019-05-21T19:52:49.086Z,93.90
2019-05-21T19:55:17.820Z,93.20
2019-05-21T19:57:47.107Z,93.50
2019-05-21T20:00:18.831Z,93.50
2019-05-21T20:02:48.576Z,93.40
2019-05-21T20:05:17.586Z,93.30
2019-05-21T20:07:46.403Z,93.20
2019-05-21T20:10:15.414Z,93.00
2019-05-21T20:12:46.068Z,93.30
2019-05-21T20:15:16.370Z,93.50
2019-05-21T20:17:46.186Z,93.80
2019-05-21T20:20:17.375Z,94.00
2019-05-21T20:22:47.021Z,94.00
2019-05-21T20:25:18.301Z,94.70
2019-05-21T20:27:47.799Z,94.70
2019-05-21T20:30:19.583Z,94.50
2019-05-21T20:32:49.613Z,94.60
2019-05-21T20:35:18.886Z,94.50
2019-05-21T20:37:49.301Z,94.90
2019-05-21T20:40:18.720Z,95.60
2019-05-21T20:42:51.333Z,95.20
2019-05-21T20:45:21.855Z,95.10
2019-05-21T20:47:51.704Z,95.00
2019-05-21T20:50:21.757Z,94.60
2019-05-21T20:52:50.914Z,94.40
2019-05-21T20:55:19.762Z,94.40
2019-05-21T20:57:49.366Z,94.60
2019-05-21T21:00:22.789Z,94.60
2019-05-21T21:02:52.930Z,94.70
2019-05-21T21:05:22.403Z,94.60
2019-05-21T21:07:52.004Z,94.70
2019-05-21T21:10:22.436Z,94.60
2019-05-21T21:12:51.663Z,94.60
2019-05-21T21:15:22.156Z,95.40
2019-05-21T21:17:52.895Z,95.50
2019-05-21T21:20:23.502Z,95.80
2019-05-21T21:22:52.406Z,95.90
2019-05-21T21:25:22.848Z,95.50
2019-05-21T21:27:52.225Z,95.30
2019-05-21T21:30:24.554Z,95.70
2019-05-21T21:32:59.806Z,96.00
2019-05-21T21:35:31.339Z,96.40
2019-05-21T21:38:01.734Z,96.80
2019-05-21T21:40:33.706Z,96.50
2019-05-21T21:43:07.429Z,96.80
2019-05-21T21:45:40.473Z,97.20
2019-05-21T21:48:10.215Z,96.70
2019-05-21T21:50:39.796Z,96.50
2019-05-21T21:53:12.389Z,96.30
2019-05-21T21:55:41.577Z,96.00
2019-05-21T21:58:11.824Z,96.00
2019-05-21T22:00:59.532Z,96.20
2019-05-21T22:03:32.513Z,96.60
2019-05-21T22:06:04.693Z,96.90
2019-05-21T22:08:34.006Z,97.00
2019-05-21T22:11:04.421Z,97.10
2019-05-21T22:13:34.544Z,96.90
2019-05-21T22:16:04.644Z,96.70
2019-05-21T22:18:38.869Z,96.80
2019-05-21T22:21:07.745Z,96.80
2019-05-21T22:23:40.416Z,96.90
2019-05-21T22:26:10.873Z,97.00
2019-05-21T22:28:42.854Z,97.10
2019-05-21T22:31:13.117Z,97.30
2019-05-21T22:33:43.792Z,97.30
2019-05-21T22:36:12.840Z,97.40
2019-05-21T22:38:41.877Z,97.40
2019-05-21T22:41:10.889Z,97.80
2019-05-21T22:43:40.252Z,97.70
2019-05-21T22:46:12.443Z,97.70
2019-05-21T22:48:42.840Z,97.70
2019-05-21T22:51:13.213Z,97.70
2019-05-21T22:53:43.603Z,97.90
2019-05-21T22:56:13.002Z,98.00
2019-05-21T22:58:43.809Z,98.00
2019-05-21T23:01:14.369Z,98.00
2019-05-21T23:03:43.732Z,98.20
2019-05-21T23:06:13.015Z,98.30
2019-05-21T23:08:42.338Z,98.20
2019-05-21T23:11:11.709Z,97.90
2019-05-21T23:13:42.346Z,97.90
2019-05-21T23:16:14.815Z,98.20
2019-05-21T23:18:46.376Z,98.20
2019-05-21T23:21:17.713Z,98.20
2019-05-21T23:23:49.012Z,98.40
2019-05-21T23:26:27.632Z,98.80
2019-05-21T23:29:09.346Z,98.80
2019-05-21T23:31:38.578Z,99.00
2019-05-21T23:34:23.943Z,99.10
2019-05-21T23:36:58.877Z,99.00
2019-05-21T23:39:34.016Z,99.10
2019-05-21T23:42:09.082Z,98.90
2019-05-21T23:44:47.143Z,99.00
2019-05-21T23:47:23.418Z,99.30
2019-05-21T23:49:52.632Z,99.10
2019-05-21T23:52:30.116Z,99.40
2019-05-21T23:57:54.518Z,99.20
